sensor_id;sensor_type;location;lat;lon;timestamp;P1;durP1;ratioP1;P2;durP2;ratioP2
75655;SDS011;64252;51.094;13.714;2023-07-22T00:02:23;6.38;;;2.65;;
75655;SDS011;64252;51.094;13.714;2023-07-22T00:04:49;4.30;;;2.45;;
75655;SDS011;64252;51.094;13.714;2023-07-22T00:07:15;5.65;;;2.60;;
75655;SDS011;64252;51.094;13.714;2023-07-22T00:09:41;6.63;;;3.00;;
75655;SDS011;64252;51.094;13.714;2023-07-22T00:12:07;6.70;;;3.25;;
75655;SDS011;64252;51.094;13.714;2023-07-22T00:14:33;5.35;;;2.67;;
75655;SDS011;64252;51.094;13.714;2023-07-22T00:17:00;5.18;;;2.83;;
75655;SDS011;64252;51.094;13.714;2023-07-22T00:19:25;4.63;;;2.55;;
75655;SDS011;64252;51.094;13.714;2023-07-22T00:21:51;8.18;;;3.13;;
75655;SDS011;64252;51.094;13.714;2023-07-22T00:24:17;5.70;;;2.80;;
75655;SDS011;64252;51.094;13.714;2023-07-22T00:26:43;5.90;;;2.70;;
75655;SDS011;64252;51.094;13.714;2023-07-22T00:29:09;9.82;;;2.88;;
75655;SDS011;64252;51.094;13.714;2023-07-22T00:31:35;8.57;;;2.95;;
75655;SDS011;64252;51.094;13.714;2023-07-22T00:34:00;5.22;;;2.58;;
75655;SDS011;64252;51.094;13.714;2023-07-22T00:36:26;6.55;;;2.50;;
75655;SDS011;64252;51.094;13.714;2023-07-22T00:38:51;4.90;;;2.67;;
75655;SDS011;64252;51.094;13.714;2023-07-22T00:41:18;7.75;;;2.72;;
75655;SDS011;64252;51.094;13.714;2023-07-22T00:43:44;6.10;;;2.20;;
75655;SDS011;64252;51.094;13.714;2023-07-22T00:46:10;6.00;;;2.55;;
75655;SDS011;64252;51.094;13.714;2023-07-22T00:48:35;6.22;;;2.80;;
75655;SDS011;64252;51.094;13.714;2023-07-22T00:51:02;7.88;;;2.42;;
75655;SDS011;64252;51.094;13.714;2023-07-22T00:53:28;6.70;;;2.67;;
75655;SDS011;64252;51.094;13.714;2023-07-22T00:55:54;7.30;;;2.47;;
75655;SDS011;64252;51.094;13.714;2023-07-22T00:58:20;6.45;;;2.50;;
75655;SDS011;64252;51.094;13.714;2023-07-22T01:00:46;6.07;;;2.20;;
75655;SDS011;64252;51.094;13.714;2023-07-22T01:03:11;6.10;;;2.67;;
75655;SDS011;64252;51.094;13.714;2023-07-22T01:05:38;6.22;;;2.47;;
75655;SDS011;64252;51.094;13.714;2023-07-22T01:08:04;8.00;;;2.45;;
75655;SDS011;64252;51.094;13.714;2023-07-22T01:10:31;5.68;;;2.40;;
75655;SDS011;64252;51.094;13.714;2023-07-22T01:12:57;4.75;;;2.47;;
75655;SDS011;64252;51.094;13.714;2023-07-22T01:15:23;5.75;;;2.40;;
75655;SDS011;64252;51.094;13.714;2023-07-22T01:17:50;4.80;;;2.22;;
75655;SDS011;64252;51.094;13.714;2023-07-22T01:20:16;8.32;;;2.40;;
75655;SDS011;64252;51.094;13.714;2023-07-22T01:22:50;5.13;;;2.45;;
75655;SDS011;64252;51.094;13.714;2023-07-22T01:25:19;6.05;;;2.38;;
75655;SDS011;64252;51.094;13.714;2023-07-22T01:27:45;5.88;;;2.13;;
75655;SDS011;64252;51.094;13.714;2023-07-22T01:30:11;6.43;;;2.60;;
75655;SDS011;64252;51.094;13.714;2023-07-22T01:32:36;3.78;;;2.00;;
75655;SDS011;64252;51.094;13.714;2023-07-22T01:35:02;4.95;;;1.98;;
75655;SDS011;64252;51.094;13.714;2023-07-22T01:37:28;6.97;;;2.45;;
75655;SDS011;64252;51.094;13.714;2023-07-22T01:39:53;5.80;;;2.90;;
75655;SDS011;64252;51.094;13.714;2023-07-22T01:42:22;6.90;;;2.92;;
75655;SDS011;64252;51.094;13.714;2023-07-22T01:44:48;7.65;;;3.13;;
75655;SDS011;64252;51.094;13.714;2023-07-22T01:47:13;6.72;;;2.90;;
75655;SDS011;64252;51.094;13.714;2023-07-22T01:49:39;6.80;;;3.33;;
75655;SDS011;64252;51.094;13.714;2023-07-22T01:52:05;6.13;;;2.97;;
75655;SDS011;64252;51.094;13.714;2023-07-22T01:54:30;9.65;;;3.67;;
75655;SDS011;64252;51.094;13.714;2023-07-22T01:56:56;7.28;;;3.05;;
75655;SDS011;64252;51.094;13.714;2023-07-22T01:59:22;7.43;;;3.40;;
75655;SDS011;64252;51.094;13.714;2023-07-22T02:01:47;15.40;;;3.58;;
75655;SDS011;64252;51.094;13.714;2023-07-22T02:04:13;9.40;;;3.75;;
75655;SDS011;64252;51.094;13.714;2023-07-22T02:06:38;6.78;;;3.25;;
75655;SDS011;64252;51.094;13.714;2023-07-22T02:09:04;9.25;;;3.03;;
75655;SDS011;64252;51.094;13.714;2023-07-22T02:14:02;6.60;;;2.95;;
75655;SDS011;64252;51.094;13.714;2023-07-22T02:16:33;7.72;;;2.63;;
75655;SDS011;64252;51.094;13.714;2023-07-22T02:19:00;9.23;;;3.20;;
75655;SDS011;64252;51.094;13.714;2023-07-22T02:21:25;7.63;;;3.15;;
75655;SDS011;64252;51.094;13.714;2023-07-22T02:23:51;8.02;;;2.78;;
75655;SDS011;64252;51.094;13.714;2023-07-22T02:26:17;9.45;;;2.75;;
75655;SDS011;64252;51.094;13.714;2023-07-22T02:28:42;9.35;;;3.05;;
75655;SDS011;64252;51.094;13.714;2023-07-22T02:31:08;12.45;;;3.03;;
75655;SDS011;64252;51.094;13.714;2023-07-22T02:33:34;5.15;;;2.80;;
75655;SDS011;64252;51.094;13.714;2023-07-22T02:35:59;9.25;;;3.35;;
75655;SDS011;64252;51.094;13.714;2023-07-22T02:38:25;8.57;;;3.30;;
75655;SDS011;64252;51.094;13.714;2023-07-22T02:40:50;5.85;;;3.05;;
75655;SDS011;64252;51.094;13.714;2023-07-22T02:43:16;8.32;;;3.40;;
75655;SDS011;64252;51.094;13.714;2023-07-22T02:45:41;9.88;;;3.40;;
75655;SDS011;64252;51.094;13.714;2023-07-22T02:48:07;5.90;;;2.72;;
75655;SDS011;64252;51.094;13.714;2023-07-22T02:50:32;10.85;;;3.13;;
75655;SDS011;64252;51.094;13.714;2023-07-22T02:52:58;13.45;;;3.60;;
75655;SDS011;64252;51.094;13.714;2023-07-22T02:55:23;8.48;;;3.25;;
75655;SDS011;64252;51.094;13.714;2023-07-22T02:57:49;7.00;;;3.10;;
75655;SDS011;64252;51.094;13.714;2023-07-22T03:00:16;7.68;;;3.00;;
75655;SDS011;64252;51.094;13.714;2023-07-22T03:02:52;5.40;;;3.30;;
75655;SDS011;64252;51.094;13.714;2023-07-22T03:05:18;5.40;;;3.05;;
75655;SDS011;64252;51.094;13.714;2023-07-22T03:07:44;9.70;;;3.22;;
75655;SDS011;64252;51.094;13.714;2023-07-22T03:10:10;5.97;;;2.85;;
75655;SDS011;64252;51.094;13.714;2023-07-22T03:12:36;7.35;;;3.25;;
75655;SDS011;64252;51.094;13.714;2023-07-22T03:15:02;8.43;;;3.53;;
75655;SDS011;64252;51.094;13.714;2023-07-22T03:17:29;9.65;;;3.22;;
75655;SDS011;64252;51.094;13.714;2023-07-22T03:20:01;6.13;;;3.10;;
75655;SDS011;64252;51.094;13.714;2023-07-22T03:22:30;10.48;;;3.00;;
75655;SDS011;64252;51.094;13.714;2023-07-22T03:24:56;7.43;;;3.60;;
75655;SDS011;64252;51.094;13.714;2023-07-22T03:27:22;8.88;;;3.55;;
75655;SDS011;64252;51.094;13.714;2023-07-22T03:29:47;6.30;;;3.05;;
75655;SDS011;64252;51.094;13.714;2023-07-22T03:32:13;9.07;;;3.10;;
75655;SDS011;64252;51.094;13.714;2023-07-22T03:34:38;10.18;;;3.90;;
75655;SDS011;64252;51.094;13.714;2023-07-22T03:37:04;10.75;;;3.83;;
75655;SDS011;64252;51.094;13.714;2023-07-22T03:39:30;7.20;;;3.30;;
75655;SDS011;64252;51.094;13.714;2023-07-22T03:41:56;7.80;;;3.33;;
75655;SDS011;64252;51.094;13.714;2023-07-22T03:44:22;7.50;;;3.72;;
75655;SDS011;64252;51.094;13.714;2023-07-22T03:46:47;11.77;;;3.72;;
75655;SDS011;64252;51.094;13.714;2023-07-22T03:49:13;7.05;;;3.70;;
75655;SDS011;64252;51.094;13.714;2023-07-22T03:51:38;7.32;;;3.92;;
75655;SDS011;64252;51.094;13.714;2023-07-22T03:54:04;8.55;;;3.33;;
75655;SDS011;64252;51.094;13.714;2023-07-22T03:56:29;9.45;;;3.60;;
75655;SDS011;64252;51.094;13.714;2023-07-22T03:58:55;7.60;;;3.30;;
75655;SDS011;64252;51.094;13.714;2023-07-22T04:01:21;6.30;;;3.60;;
75655;SDS011;64252;51.094;13.714;2023-07-22T04:03:46;9.52;;;3.92;;
75655;SDS011;64252;51.094;13.714;2023-07-22T04:06:12;7.63;;;3.25;;
75655;SDS011;64252;51.094;13.714;2023-07-22T04:08:37;7.63;;;3.47;;
75655;SDS011;64252;51.094;13.714;2023-07-22T04:11:03;7.95;;;3.17;;
75655;SDS011;64252;51.094;13.714;2023-07-22T04:13:28;4.57;;;2.75;;
75655;SDS011;64252;51.094;13.714;2023-07-22T04:15:54;8.02;;;2.97;;
75655;SDS011;64252;51.094;13.714;2023-07-22T04:18:20;7.20;;;3.28;;
75655;SDS011;64252;51.094;13.714;2023-07-22T04:20:46;7.85;;;3.40;;
75655;SDS011;64252;51.094;13.714;2023-07-22T04:23:13;8.50;;;3.30;;
75655;SDS011;64252;51.094;13.714;2023-07-22T04:25:43;6.72;;;3.22;;
75655;SDS011;64252;51.094;13.714;2023-07-22T04:28:09;6.30;;;2.85;;
75655;SDS011;64252;51.094;13.714;2023-07-22T04:30:35;8.55;;;3.42;;
75655;SDS011;64252;51.094;13.714;2023-07-22T04:33:01;10.40;;;3.03;;
75655;SDS011;64252;51.094;13.714;2023-07-22T04:35:31;6.68;;;2.90;;
75655;SDS011;64252;51.094;13.714;2023-07-22T04:37:58;6.55;;;2.90;;
75655;SDS011;64252;51.094;13.714;2023-07-22T04:40:24;4.68;;;2.60;;
75655;SDS011;64252;51.094;13.714;2023-07-22T04:42:50;4.93;;;2.55;;
75655;SDS011;64252;51.094;13.714;2023-07-22T04:45:16;9.45;;;2.95;;
75655;SDS011;64252;51.094;13.714;2023-07-22T04:50:12;13.07;;;2.95;;
75655;SDS011;64252;51.094;13.714;2023-07-22T04:52:38;10.57;;;3.05;;
75655;SDS011;64252;51.094;13.714;2023-07-22T04:55:05;5.75;;;2.50;;
75655;SDS011;64252;51.094;13.714;2023-07-22T05:00:09;7.13;;;2.47;;
75655;SDS011;64252;51.094;13.714;2023-07-22T05:02:34;5.30;;;3.17;;
75655;SDS011;64252;51.094;13.714;2023-07-22T05:05:00;15.23;;;3.65;;
75655;SDS011;64252;51.094;13.714;2023-07-22T05:07:26;6.57;;;3.10;;
75655;SDS011;64252;51.094;13.714;2023-07-22T05:09:52;4.68;;;2.28;;
75655;SDS011;64252;51.094;13.714;2023-07-22T05:12:18;7.85;;;2.85;;
75655;SDS011;64252;51.094;13.714;2023-07-22T05:14:46;4.40;;;2.30;;
75655;SDS011;64252;51.094;13.714;2023-07-22T05:17:12;7.18;;;2.75;;
75655;SDS011;64252;51.094;13.714;2023-07-22T05:19:37;8.10;;;2.65;;
75655;SDS011;64252;51.094;13.714;2023-07-22T05:22:03;7.03;;;2.45;;
75655;SDS011;64252;51.094;13.714;2023-07-22T05:24:29;7.38;;;2.38;;
75655;SDS011;64252;51.094;13.714;2023-07-22T05:26:54;4.82;;;2.20;;
75655;SDS011;64252;51.094;13.714;2023-07-22T05:29:20;4.55;;;2.10;;
75655;SDS011;64252;51.094;13.714;2023-07-22T05:31:45;6.80;;;1.70;;
75655;SDS011;64252;51.094;13.714;2023-07-22T05:34:12;6.75;;;2.28;;
75655;SDS011;64252;51.094;13.714;2023-07-22T05:36:37;5.57;;;1.80;;
75655;SDS011;64252;51.094;13.714;2023-07-22T05:39:05;5.03;;;1.95;;
75655;SDS011;64252;51.094;13.714;2023-07-22T05:41:32;3.92;;;1.98;;
75655;SDS011;64252;51.094;13.714;2023-07-22T05:43:58;4.57;;;2.10;;
75655;SDS011;64252;51.094;13.714;2023-07-22T05:46:27;5.70;;;1.98;;
75655;SDS011;64252;51.094;13.714;2023-07-22T05:48:53;6.03;;;1.88;;
75655;SDS011;64252;51.094;13.714;2023-07-22T05:51:18;5.72;;;2.00;;
75655;SDS011;64252;51.094;13.714;2023-07-22T05:53:44;4.93;;;1.80;;
75655;SDS011;64252;51.094;13.714;2023-07-22T05:56:10;5.03;;;1.77;;
75655;SDS011;64252;51.094;13.714;2023-07-22T05:58:35;6.00;;;1.50;;
75655;SDS011;64252;51.094;13.714;2023-07-22T06:01:01;4.18;;;1.48;;
75655;SDS011;64252;51.094;13.714;2023-07-22T06:03:27;7.05;;;1.85;;
75655;SDS011;64252;51.094;13.714;2023-07-22T06:05:53;3.35;;;1.50;;
75655;SDS011;64252;51.094;13.714;2023-07-22T06:08:19;3.42;;;1.52;;
